sensor_id;sensor_type;location;lat;lon;timestamp;pressure;altitude;pressure_sealevel;temperature;humidity
65359;BME280;52491;45.900;6.346;2022-12-16T18:16:56;93151.78;;;20.90;31.66
65359;BME280;52491;45.900;6.346;2022-12-16T18:19:40;93155.13;;;21.33;31.39
65359;BME280;52491;45.900;6.346;2022-12-16T18:22:24;93153.13;;;21.71;31.46
65359;BME280;52491;45.900;6.346;2022-12-16T18:25:08;93153.94;;;22.02;31.18
65359;BME280;52491;45.900;6.346;2022-12-16T18:27:52;93159.53;;;22.26;30.23
65359;BME280;52491;45.900;6.346;2022-12-16T18:30:36;93158.75;;;22.46;30.51
65359;BME280;52491;45.900;6.346;2022-12-16T18:33:20;93156.84;;;22.62;30.38
65359;BME280;52491;45.900;6.346;2022-12-16T18:36:04;93161.34;;;22.77;30.11
65359;BME280;52491;45.900;6.346;2022-12-16T18:38:49;93166.38;;;22.89;29.93
65359;BME280;52491;45.900;6.346;2022-12-16T18:41:40;93165.31;;;23.00;30.20
65359;BME280;52491;45.900;6.346;2022-12-16T18:44:24;93162.88;;;23.09;30.48
65359;BME280;52491;45.900;6.346;2022-12-16T18:47:08;93166.03;;;23.16;30.46
65359;BME280;52491;45.900;6.346;2022-12-16T18:49:52;93172.94;;;23.22;30.72
65359;BME280;52491;45.900;6.346;2022-12-16T18:52:36;93176.09;;;23.29;30.58
65359;BME280;52491;45.900;6.346;2022-12-16T18:55:20;93180.88;;;23.32;30.45
65359;BME280;52491;45.900;6.346;2022-12-16T18:58:04;93184.59;;;23.36;30.63
65359;BME280;52491;45.900;6.346;2022-12-16T19:00:48;93189.88;;;23.41;30.70
65359;BME280;52491;45.900;6.346;2022-12-16T19:03:32;93190.69;;;23.42;31.04
65359;BME280;52491;45.900;6.346;2022-12-16T19:06:16;93200.78;;;23.45;31.05
65359;BME280;52491;45.900;6.346;2022-12-16T19:09:08;93199.13;;;23.49;31.02
65359;BME280;52491;45.900;6.346;2022-12-16T19:11:52;93198.09;;;23.50;31.13
65359;BME280;52491;45.900;6.346;2022-12-16T19:14:36;93210.06;;;23.53;30.97
65359;BME280;52491;45.900;6.346;2022-12-16T19:17:20;93212.44;;;23.54;31.17
65359;BME280;52491;45.900;6.346;2022-12-16T19:20:04;93210.56;;;23.55;31.16
65359;BME280;52491;45.900;6.346;2022-12-16T19:22:48;93223.84;;;23.55;31.10
65359;BME280;52491;45.900;6.346;2022-12-16T19:25:32;93227.06;;;23.57;30.92
65359;BME280;52491;45.900;6.346;2022-12-16T19:28:17;93222.53;;;23.57;31.22
65359;BME280;52491;45.900;6.346;2022-12-16T19:31:01;93232.38;;;23.57;31.06
65359;BME280;52491;45.900;6.346;2022-12-16T19:33:44;93231.81;;;23.60;31.08
65359;BME280;52491;45.900;6.346;2022-12-16T19:36:28;93236.34;;;23.59;30.78
65359;BME280;52491;45.900;6.346;2022-12-16T19:39:13;93240.59;;;23.60;30.97
65359;BME280;52491;45.900;6.346;2022-12-16T19:41:57;93246.44;;;23.62;31.16
65359;BME280;52491;45.900;6.346;2022-12-16T19:44:41;93241.91;;;23.63;31.26
65359;BME280;52491;45.900;6.346;2022-12-16T19:47:25;93243.78;;;23.62;31.04
65359;BME280;52491;45.900;6.346;2022-12-16T19:50:09;93246.44;;;23.62;31.54
65359;BME280;52491;45.900;6.346;2022-12-16T19:52:53;93249.91;;;23.63;31.58
65359;BME280;52491;45.900;6.346;2022-12-16T19:55:37;93251.50;;;23.64;31.55
65359;BME280;52491;45.900;6.346;2022-12-16T19:58:22;93256.53;;;23.65;30.92
65359;BME280;52491;45.900;6.346;2022-12-16T20:01:06;93260.28;;;23.64;30.80
65359;BME280;52491;45.900;6.346;2022-12-16T20:03:50;93263.44;;;23.66;31.15
